createdAt,value
2023-05-15T05:27:07.230Z,47.98
2023-05-15T05:28:07.193Z,46.66
2023-05-15T05:29:07.072Z,45.66
2023-05-15T05:30:07.133Z,45.12
2023-05-15T05:31:07.014Z,44.63
2023-05-15T05:32:06.847Z,43.92
2023-05-15T05:33:06.712Z,43.65
2023-05-15T05:34:06.523Z,44.57
2023-05-15T05:35:06.367Z,43.64
2023-05-15T05:36:06.207Z,43.06
2023-05-15T05:37:06.047Z,42.65
2023-05-15T05:38:05.891Z,42.41
2023-05-15T05:39:05.723Z,42.31
2023-05-15T05:40:05.568Z,42.34
2023-05-15T05:41:05.392Z,42.17
2023-05-15T05:42:05.236Z,41.96
2023-05-15T05:43:05.098Z,41.78
2023-05-15T05:44:04.911Z,41.62
2023-05-15T05:45:04.719Z,41.55
2023-05-15T05:46:04.557Z,41.41
2023-05-15T05:47:04.458Z,41.42
2023-05-15T05:48:04.245Z,41.34
2023-05-15T05:49:04.072Z,41.44
2023-05-15T05:50:03.890Z,41.30
2023-05-15T05:51:03.718Z,41.27
2023-05-15T05:52:03.544Z,40.95
2023-05-15T05:53:03.385Z,40.88
2023-05-15T05:54:03.208Z,40.75
2023-05-15T05:55:03.037Z,40.78
2023-05-15T05:56:02.857Z,40.51
2023-05-15T05:57:02.684Z,40.39
2023-05-15T05:58:04.803Z,40.33
2023-05-15T05:59:03.324Z,40.72
2023-05-15T06:00:02.162Z,40.62
2023-05-15T06:01:01.998Z,40.66
2023-05-15T06:02:01.884Z,40.73
2023-05-15T06:03:01.718Z,40.82
2023-05-15T06:04:01.544Z,41.00
2023-05-15T06:05:01.312Z,40.98
2023-05-15T06:06:01.138Z,41.02
2023-05-15T06:07:00.976Z,41.13
2023-05-15T06:08:00.799Z,41.19
2023-05-15T06:09:00.628Z,41.25
2023-05-15T06:10:00.485Z,41.25
2023-05-15T06:11:00.278Z,41.32
2023-05-15T06:12:00.125Z,41.27
2023-05-15T06:12:59.927Z,41.24
2023-05-15T06:13:59.777Z,41.16
2023-05-15T06:14:59.584Z,41.07
2023-05-15T06:15:59.415Z,41.05
2023-05-15T06:16:59.243Z,40.99
2023-05-15T06:17:59.065Z,40.85
2023-05-15T06:18:58.922Z,40.56
2023-05-15T06:19:58.700Z,40.43
2023-05-15T06:20:58.523Z,40.39
2023-05-15T06:21:58.341Z,41.22
2023-05-15T06:22:58.154Z,40.86
2023-05-15T06:23:57.968Z,40.83
2023-05-15T06:24:57.832Z,40.41
2023-05-15T06:25:57.954Z,40.34
2023-05-15T06:26:57.566Z,40.23
2023-05-15T06:27:57.456Z,40.43
2023-05-15T06:28:57.315Z,40.58
2023-05-15T06:29:57.944Z,40.61
2023-05-15T06:30:57.209Z,40.69
2023-05-15T06:31:56.930Z,40.61
2023-05-15T06:32:56.796Z,40.64
2023-05-15T06:33:56.670Z,40.53
2023-05-15T06:34:56.525Z,40.50
2023-05-15T06:35:56.380Z,40.45
2023-05-15T06:36:56.239Z,40.40
2023-05-15T06:37:57.777Z,40.41
2023-05-15T06:38:55.966Z,40.32
2023-05-15T06:39:55.806Z,40.27
2023-05-15T06:40:55.663Z,40.25
2023-05-15T06:41:55.501Z,40.23
2023-05-15T06:42:55.356Z,40.18
2023-05-15T06:43:55.232Z,40.18
2023-05-15T06:44:55.062Z,40.18
2023-05-15T06:45:54.948Z,40.12
2023-05-15T06:46:54.923Z,40.08
2023-05-15T06:47:54.616Z,40.07
2023-05-15T06:48:54.440Z,40.07
2023-05-15T06:49:54.276Z,39.98
2023-05-15T06:50:54.147Z,40.04
2023-05-15T06:51:53.980Z,40.01
2023-05-15T06:52:53.819Z,40.05
2023-05-15T06:53:53.662Z,40.08
2023-05-15T06:54:53.511Z,40.05
2023-05-15T06:55:53.372Z,40.03
2023-05-15T06:56:53.201Z,40.03
2023-05-15T06:57:53.051Z,40.03
2023-05-15T06:58:52.902Z,40.02
2023-05-15T06:59:52.743Z,40.07
2023-05-15T07:00:54.247Z,40.03
2023-05-15T07:01:52.532Z,40.05
2023-05-15T07:02:52.388Z,40.05
2023-05-15T07:03:52.042Z,40.06
2023-05-15T07:04:51.902Z,40.08
2023-05-15T07:05:51.675Z,40.05
2023-05-15T07:06:51.484Z,40.06
2023-05-15T07:07:51.305Z,40.06
2023-05-15T07:08:51.139Z,40.07
2023-05-15T07:09:50.938Z,40.07
2023-05-15T07:10:50.745Z,40.06
2023-05-15T07:11:50.563Z,40.05
2023-05-15T07:12:50.391Z,40.10
2023-05-15T07:13:50.749Z,40.08
2023-05-15T07:14:50.142Z,40.09
2023-05-15T07:15:49.828Z,40.13
2023-05-15T07:16:49.664Z,40.10
2023-05-15T07:17:49.578Z,40.13
2023-05-15T07:18:49.361Z,40.10
2023-05-15T07:19:49.083Z,40.10
2023-05-15T07:20:48.896Z,40.06
2023-05-15T07:21:48.737Z,40.07
2023-05-15T07:22:56.278Z,40.23
2023-05-15T07:23:49.360Z,40.21
2023-05-15T07:24:48.185Z,40.21
2023-05-15T07:25:48.005Z,40.11
2023-05-15T07:26:58.243Z,40.09
2023-05-15T07:27:48.653Z,40.09
2023-05-15T07:28:47.460Z,40.14
2023-05-15T07:29:47.311Z,40.13
2023-05-15T07:30:47.119Z,40.15
2023-05-15T07:31:46.982Z,40.15
2023-05-15T07:32:46.861Z,40.13
2023-05-15T07:33:46.561Z,40.10
2023-05-15T07:34:46.398Z,40.11
2023-05-15T07:35:46.193Z,40.09
2023-05-15T07:36:46.057Z,40.09
2023-05-15T07:37:45.874Z,40.03
2023-05-15T07:38:45.734Z,40.08
2023-05-15T07:39:45.670Z,40.06
2023-05-15T07:40:45.481Z,40.00
2023-05-15T07:41:45.371Z,39.95
2023-05-15T07:42:45.273Z,39.97
2023-05-15T07:43:45.107Z,39.97
2023-05-15T07:44:47.183Z,39.87
2023-05-15T07:45:44.872Z,39.89
2023-05-15T07:46:44.628Z,39.92
2023-05-15T07:47:44.436Z,39.88
2023-05-15T07:48:44.241Z,39.92
2023-05-15T07:49:44.050Z,39.85
2023-05-15T07:50:43.864Z,39.82
2023-05-15T07:51:43.762Z,39.89
2023-05-15T07:52:43.486Z,39.87
2023-05-15T07:53:43.291Z,39.85
2023-05-15T07:54:43.121Z,39.81
2023-05-15T07:55:42.916Z,39.84
2023-05-15T07:56:42.733Z,39.85
2023-05-15T07:57:42.619Z,39.83
2023-05-15T07:58:42.375Z,39.83
2023-05-15T07:59:42.184Z,39.80
2023-05-15T08:00:42.016Z,39.69
2023-05-15T08:01:41.799Z,39.76
2023-05-15T08:02:41.711Z,39.72
2023-05-15T08:03:41.541Z,39.76
2023-05-15T08:04:41.379Z,39.79
2023-05-15T08:05:41.058Z,39.74
2023-05-15T08:06:42.042Z,39.73
2023-05-15T08:07:40.707Z,39.74
2023-05-15T08:08:41.399Z,39.72
2023-05-15T08:09:40.341Z,39.73
2023-05-15T08:10:40.167Z,39.68
2023-05-15T08:11:39.986Z,39.62
2023-05-15T08:12:39.809Z,39.68
2023-05-15T08:13:39.616Z,40.15
2023-05-15T08:14:39.567Z,39.99
2023-05-15T08:15:39.386Z,39.84
2023-05-15T08:16:39.219Z,39.91
2023-05-15T08:17:39.092Z,40.03
2023-05-15T08:18:39.031Z,40.11
2023-05-15T08:19:39.483Z,40.17
2023-05-15T08:20:38.696Z,40.18
2023-05-15T08:21:38.476Z,40.37
2023-05-15T08:22:38.331Z,40.52
2023-05-15T08:23:38.156Z,40.12
2023-05-15T08:24:38.004Z,40.41
2023-05-15T08:25:37.855Z,40.66
2023-05-15T08:26:37.690Z,40.36
2023-05-15T08:27:38.403Z,40.34
2023-05-15T08:28:37.464Z,40.30
2023-05-15T08:29:39.321Z,40.43
2023-05-15T08:30:37.057Z,40.50
2023-05-15T08:31:37.549Z,40.62
2023-05-15T08:32:36.790Z,40.58
2023-05-15T08:33:36.720Z,40.58
2023-05-15T08:34:36.448Z,40.63
2023-05-15T08:35:36.333Z,40.55
2023-05-15T08:36:37.696Z,40.61
2023-05-15T08:37:36.014Z,40.65
2023-05-15T08:38:35.854Z,40.62
2023-05-15T08:39:35.703Z,40.65
2023-05-15T08:40:39.563Z,40.70
2023-05-15T08:42:35.181Z,40.66
2023-05-15T08:43:34.988Z,40.65
2023-05-15T08:44:34.793Z,40.63
2023-05-15T08:45:35.409Z,40.67
2023-05-15T08:46:34.434Z,40.65
2023-05-15T08:47:34.271Z,40.67
2023-05-15T08:48:34.075Z,40.67
2023-05-15T08:49:34.484Z,40.67
2023-05-15T08:50:33.667Z,40.69
2023-05-15T08:51:33.471Z,40.67
2023-05-15T08:52:33.297Z,40.64
2023-05-15T08:53:33.115Z,40.64
2023-05-15T08:54:32.935Z,40.64
2023-05-15T08:55:32.790Z,40.62
2023-05-15T08:56:32.573Z,40.63
2023-05-15T08:57:32.381Z,40.64
2023-05-15T08:58:32.228Z,40.67
2023-05-15T08:59:32.039Z,40.63
2023-05-15T09:00:31.860Z,40.59
2023-05-15T09:01:31.760Z,40.65
2023-05-15T09:02:31.563Z,40.57
2023-05-15T09:03:31.442Z,40.60
2023-05-15T09:04:31.193Z,40.61
2023-05-15T09:05:30.936Z,40.58
2023-05-15T09:06:30.766Z,40.57
2023-05-15T09:07:30.585Z,40.56
2023-05-15T09:08:30.416Z,40.51
2023-05-15T09:09:30.227Z,40.52
2023-05-15T09:10:30.040Z,40.50
2023-05-15T09:11:29.868Z,40.48
2023-05-15T09:12:29.688Z,40.51
2023-05-15T09:13:29.511Z,40.46
2023-05-15T09:14:29.300Z,40.44
2023-05-15T09:15:29.131Z,40.47
2023-05-15T09:16:28.990Z,40.51
2023-05-15T09:17:28.807Z,40.50
2023-05-15T09:18:28.701Z,40.42
2023-05-15T09:19:28.550Z,40.44
2023-05-15T09:20:28.415Z,40.41
2023-05-15T09:21:29.039Z,40.44
2023-05-15T09:22:28.180Z,40.72
2023-05-15T09:23:28.032Z,40.23
2023-05-15T09:24:27.832Z,39.95
2023-05-15T09:25:28.500Z,39.34
2023-05-15T09:26:27.590Z,39.06
2023-05-15T09:27:28.308Z,39.38
2023-05-15T09:28:27.233Z,39.23
2023-05-15T09:29:26.934Z,39.23
2023-05-15T09:30:26.752Z,39.48
2023-05-15T09:31:26.608Z,39.74
2023-05-15T09:32:26.449Z,39.76
2023-05-15T09:33:26.262Z,39.79
2023-05-15T09:34:26.137Z,40.55
2023-05-15T09:35:28.387Z,40.26
2023-05-15T09:36:26.092Z,39.96
2023-05-15T09:37:25.971Z,39.79
2023-05-15T09:38:25.846Z,39.79
2023-05-15T09:39:25.700Z,40.44
2023-05-15T09:40:25.551Z,40.63
2023-05-15T09:41:25.409Z,40.75
2023-05-15T09:42:25.283Z,40.83
2023-05-15T09:43:25.067Z,40.99
2023-05-15T09:44:24.894Z,41.09
2023-05-15T09:45:24.916Z,41.19
2023-05-15T09:46:24.653Z,41.33
2023-05-15T09:47:24.593Z,41.53
2023-05-15T09:48:24.234Z,41.60
2023-05-15T09:49:25.008Z,41.73
2023-05-15T09:50:23.820Z,41.92
2023-05-15T09:51:23.621Z,42.09
2023-05-15T09:52:23.419Z,42.24
2023-05-15T09:53:23.225Z,42.29
2023-05-15T09:54:23.040Z,42.41
2023-05-15T09:55:23.007Z,42.45
2023-05-15T09:56:22.703Z,42.61
2023-05-15T09:57:22.510Z,42.86
2023-05-15T09:58:22.389Z,42.93
2023-05-15T09:59:22.241Z,43.03
2023-05-15T10:00:22.074Z,43.19
2023-05-15T10:01:21.961Z,43.23
2023-05-15T10:02:21.771Z,43.38
2023-05-15T10:03:21.634Z,43.50
2023-05-15T10:04:21.480Z,43.61
2023-05-15T10:05:28.654Z,43.96
2023-05-15T10:06:22.102Z,43.96
2023-05-15T10:07:20.901Z,44.08
2023-05-15T10:08:20.713Z,44.12
2023-05-15T10:09:20.510Z,44.22
2023-05-15T10:10:20.307Z,44.30
2023-05-15T10:11:20.136Z,44.47
2023-05-15T10:12:19.918Z,44.67
2023-05-15T10:13:19.720Z,44.90
2023-05-15T10:14:19.525Z,44.72
2023-05-15T10:15:19.323Z,44.63
2023-05-15T10:16:19.184Z,44.48
2023-05-15T10:17:18.973Z,44.32
2023-05-15T10:18:18.803Z,44.26
2023-05-15T10:19:18.686Z,44.09
2023-05-15T10:20:18.534Z,44.05
2023-05-15T10:21:18.476Z,43.96
2023-05-15T10:22:18.280Z,43.88
2023-05-15T10:23:18.148Z,43.81
2023-05-15T10:24:18.003Z,43.75
2023-05-15T10:25:17.838Z,43.68
2023-05-15T10:26:17.660Z,43.58
2023-05-15T10:27:17.488Z,43.49
2023-05-15T10:28:17.329Z,43.37
2023-05-15T10:29:17.260Z,43.42
2023-05-15T10:30:17.022Z,43.43
2023-05-15T10:31:16.839Z,43.39
2023-05-15T10:32:16.649Z,43.36
2023-05-15T10:33:17.325Z,43.38
2023-05-15T10:34:16.992Z,43.39
2023-05-15T10:35:16.151Z,43.39
2023-05-15T10:36:15.983Z,43.39
2023-05-15T10:37:15.819Z,43.33
2023-05-15T10:38:15.659Z,43.36
2023-05-15T10:39:15.454Z,43.37
2023-05-15T10:40:15.316Z,43.37
2023-05-15T10:41:17.139Z,43.41
2023-05-15T10:42:14.898Z,43.45
2023-05-15T10:43:14.716Z,43.44
2023-05-15T10:44:14.523Z,43.45
2023-05-15T10:45:14.346Z,43.42
2023-05-15T10:46:14.151Z,43.52
2023-05-15T10:47:14.093Z,43.49
2023-05-15T10:48:13.850Z,43.46
2023-05-15T10:49:13.560Z,43.54
2023-05-15T10:50:13.382Z,43.57
2023-05-15T10:51:13.173Z,43.59
2023-05-15T10:52:12.980Z,43.61
2023-05-15T10:53:12.813Z,43.58
2023-05-15T10:54:12.625Z,43.60
2023-05-15T10:55:12.436Z,43.57
2023-05-15T10:56:12.285Z,43.54
2023-05-15T10:57:12.048Z,43.46
2023-05-15T10:58:11.856Z,43.38
2023-05-15T10:59:11.705Z,43.42
2023-05-15T11:00:11.487Z,43.39
2023-05-15T11:01:11.398Z,43.34
2023-05-15T11:02:11.103Z,43.43
2023-05-15T11:03:10.942Z,43.47
2023-05-15T11:04:10.814Z,43.46
2023-05-15T11:05:10.542Z,43.51
2023-05-15T11:06:10.350Z,43.47
2023-05-15T11:07:10.172Z,43.51
2023-05-15T11:08:09.979Z,43.49
2023-05-15T11:09:09.797Z,43.48
2023-05-15T11:10:09.604Z,43.47
2023-05-15T11:11:09.418Z,43.45
2023-05-15T11:12:09.245Z,43.49
2023-05-15T11:13:09.081Z,43.41
2023-05-15T11:14:08.878Z,43.41
2023-05-15T11:15:08.711Z,43.43
2023-05-15T11:16:08.504Z,43.37
2023-05-15T11:17:08.441Z,43.43
2023-05-15T11:18:08.179Z,43.38
2023-05-15T11:19:07.998Z,43.42
2023-05-15T11:20:07.784Z,43.32
2023-05-15T11:21:07.623Z,43.33
2023-05-15T11:22:07.400Z,43.42
2023-05-15T11:23:07.221Z,43.32
2023-05-15T11:24:07.054Z,43.26
2023-05-15T11:25:06.851Z,43.33
2023-05-15T11:26:06.668Z,43.33
2023-05-15T11:27:06.485Z,43.25
2023-05-15T11:28:06.313Z,43.22
2023-05-15T11:29:06.122Z,43.27
2023-05-15T11:30:05.962Z,43.24
2023-05-15T11:31:05.829Z,43.21
2023-05-15T11:32:05.564Z,43.23
2023-05-15T11:33:05.445Z,43.21
2023-05-15T11:34:05.202Z,43.17
2023-05-15T11:35:05.044Z,43.17
2023-05-15T11:36:04.839Z,43.11
2023-05-15T11:37:04.676Z,43.16
2023-05-15T11:38:04.472Z,43.23
2023-05-15T11:39:04.291Z,43.18
2023-05-15T11:40:04.107Z,43.16
2023-05-15T11:41:03.900Z,43.10
2023-05-15T11:42:03.718Z,43.12
2023-05-15T11:43:03.548Z,43.19
2023-05-15T11:44:03.367Z,43.09
2023-05-15T11:45:03.179Z,43.12
2023-05-15T11:46:03.057Z,43.12
2023-05-15T11:47:02.908Z,43.09
2023-05-15T11:48:02.782Z,43.12
2023-05-15T11:49:02.443Z,43.05
2023-05-15T11:50:02.265Z,43.07
2023-05-15T11:51:02.091Z,43.07
2023-05-15T11:52:01.871Z,43.07
2023-05-15T11:53:01.674Z,43.02
2023-05-15T11:54:01.494Z,43.01
2023-05-15T11:55:01.302Z,42.99
2023-05-15T11:56:01.110Z,43.00
2023-05-15T11:57:00.941Z,43.01
2023-05-15T11:58:00.767Z,42.97
2023-05-15T11:59:00.659Z,42.99
2023-05-15T12:00:00.400Z,42.94
2023-05-15T12:01:00.193Z,42.96
2023-05-15T12:02:00.020Z,42.95
2023-05-15T12:02:59.971Z,42.94
2023-05-15T12:03:59.826Z,42.90
2023-05-15T12:04:59.500Z,42.93
2023-05-15T12:06:00.310Z,42.85
2023-05-15T12:07:00.506Z,42.84
2023-05-15T12:07:58.902Z,42.86
2023-05-15T12:08:58.717Z,42.84
2023-05-15T12:09:58.528Z,42.76
2023-05-15T12:10:58.355Z,42.81
2023-05-15T12:11:58.157Z,42.79
2023-05-15T12:12:57.969Z,42.73
2023-05-15T12:13:57.794Z,42.73
2023-05-15T12:14:57.613Z,42.75
2023-05-15T12:15:57.422Z,42.74
2023-05-15T12:16:57.255Z,42.70
2023-05-15T12:17:57.070Z,42.73
2023-05-15T12:18:56.897Z,42.68
2023-05-15T12:19:56.675Z,42.70
2023-05-15T12:20:56.492Z,42.65
2023-05-15T12:21:56.400Z,42.62
2023-05-15T12:22:56.126Z,42.56
2023-05-15T12:24:55.753Z,42.55
2023-05-15T12:25:55.559Z,42.57
2023-05-15T12:26:57.343Z,42.50
2023-05-15T12:27:55.192Z,42.49
2023-05-15T12:28:54.998Z,42.46
2023-05-15T12:29:54.826Z,42.50
2023-05-15T12:30:54.646Z,42.44
2023-05-15T12:31:54.525Z,42.47
2023-05-15T12:32:54.278Z,42.43
2023-05-15T12:33:54.081Z,42.40
2023-05-15T12:34:53.913Z,42.39
2023-05-15T12:35:53.720Z,42.41
2023-05-15T12:36:53.539Z,42.38
2023-05-15T12:37:53.369Z,42.37
2023-05-15T12:38:53.192Z,42.37
2023-05-15T12:39:53.055Z,42.36
2023-05-15T12:40:52.865Z,42.39
2023-05-15T12:41:52.699Z,42.35
2023-05-15T12:42:52.539Z,42.35
2023-05-15T12:43:52.372Z,42.34
2023-05-15T12:44:52.233Z,42.36
2023-05-15T12:45:52.125Z,42.35
2023-05-15T12:46:51.897Z,42.37
2023-05-15T12:47:51.748Z,42.34
2023-05-15T12:48:51.579Z,42.31
2023-05-15T12:49:51.408Z,42.32
2023-05-15T12:50:51.235Z,42.31
2023-05-15T12:51:51.061Z,42.27
2023-05-15T12:52:50.902Z,42.30
2023-05-15T12:53:50.745Z,42.31
2023-05-15T12:54:50.577Z,42.27
2023-05-15T12:55:50.406Z,42.27
2023-05-15T12:56:50.241Z,42.25
2023-05-15T12:57:50.091Z,42.30
2023-05-15T12:58:49.945Z,42.29
2023-05-15T12:59:49.746Z,42.28
2023-05-15T13:00:49.584Z,42.26
2023-05-15T13:01:49.495Z,42.26
2023-05-15T13:02:49.332Z,42.25
2023-05-15T13:03:49.162Z,42.27
2023-05-15T13:04:48.927Z,42.29
2023-05-15T13:05:48.741Z,42.29
2023-05-15T13:06:48.591Z,42.23
2023-05-15T13:07:48.410Z,42.22
2023-05-15T13:08:48.315Z,42.23
2023-05-15T13:09:48.111Z,42.16
2023-05-15T13:10:47.950Z,42.19
2023-05-15T13:11:47.777Z,42.20
2023-05-15T13:12:47.616Z,42.18
2023-05-15T13:13:47.448Z,42.22
2023-05-15T13:14:47.278Z,42.18
2023-05-15T13:15:47.146Z,42.18
2023-05-15T13:16:47.148Z,42.18
2023-05-15T13:17:46.848Z,42.13
2023-05-15T13:18:46.656Z,42.11
2023-05-15T13:19:46.455Z,42.10
2023-05-15T13:20:46.484Z,42.11
2023-05-15T13:21:46.115Z,42.06
2023-05-15T13:22:45.951Z,42.02
2023-05-15T13:23:45.800Z,42.02
2023-05-15T13:24:45.624Z,41.97
2023-05-15T13:25:45.469Z,41.87
2023-05-15T13:26:45.299Z,41.95
2023-05-15T13:27:45.124Z,41.95
2023-05-15T13:28:44.949Z,41.92
2023-05-15T13:29:44.781Z,41.86
2023-05-15T13:30:44.622Z,41.87
2023-05-15T13:31:44.508Z,41.85
2023-05-15T13:32:44.317Z,41.81
2023-05-15T13:33:44.115Z,41.80
2023-05-15T13:34:43.955Z,41.78
2023-05-15T13:35:43.788Z,41.78
2023-05-15T13:36:43.623Z,41.74
2023-05-15T13:37:43.465Z,41.75
2023-05-15T13:38:43.295Z,41.72
2023-05-15T13:39:43.134Z,41.70
2023-05-15T13:40:42.971Z,41.73
2023-05-15T13:41:42.806Z,41.63
2023-05-15T13:42:42.626Z,41.64
2023-05-15T13:43:42.477Z,41.65
2023-05-15T13:44:42.303Z,41.61
2023-05-15T13:45:42.149Z,41.63
2023-05-15T13:46:41.998Z,41.59
2023-05-15T13:47:41.844Z,41.55
2023-05-15T13:48:41.652Z,41.60
2023-05-15T13:49:41.493Z,41.59
2023-05-15T13:50:41.323Z,41.55
2023-05-15T13:51:41.244Z,41.53
2023-05-15T13:52:41.004Z,41.51
2023-05-15T13:53:40.823Z,41.49
2023-05-15T13:54:40.661Z,41.47
2023-05-15T13:55:40.518Z,41.46
2023-05-15T13:56:40.324Z,41.44
2023-05-15T13:57:40.151Z,41.43
2023-05-15T13:58:39.983Z,41.70
2023-05-15T13:59:39.832Z,41.55
2023-05-15T14:00:39.672Z,41.49
2023-05-15T14:01:39.486Z,41.45
2023-05-15T14:02:39.362Z,41.42
2023-05-15T14:03:39.217Z,41.27
2023-05-15T14:04:38.974Z,41.32
2023-05-15T14:05:38.804Z,41.33
2023-05-15T14:06:38.621Z,41.39
2023-05-15T14:07:39.050Z,41.31
2023-05-15T14:08:38.277Z,41.44
2023-05-15T14:09:38.098Z,41.34
2023-05-15T14:10:37.915Z,41.28
2023-05-15T14:11:37.731Z,41.27
2023-05-15T14:12:37.578Z,41.12
2023-05-15T14:13:37.457Z,41.14
2023-05-15T14:14:37.252Z,40.90
2023-05-15T14:15:37.153Z,40.96
2023-05-15T14:16:37.001Z,41.01
2023-05-15T14:17:36.709Z,40.96
2023-05-15T14:18:36.551Z,40.97
2023-05-15T14:19:36.363Z,40.85
2023-05-15T14:20:36.193Z,40.84
2023-05-15T14:21:36.021Z,40.91
2023-05-15T14:22:35.831Z,40.96
2023-05-15T14:23:35.658Z,40.93
2023-05-15T14:24:35.496Z,41.01
2023-05-15T14:25:35.309Z,41.08
2023-05-15T14:26:35.147Z,41.10
2023-05-15T14:27:34.965Z,41.11
2023-05-15T14:28:34.802Z,41.18
2023-05-15T14:29:34.614Z,41.21
2023-05-15T14:30:34.465Z,41.20
2023-05-15T14:31:34.318Z,41.17
2023-05-15T14:32:34.146Z,41.22
2023-05-15T14:33:33.956Z,41.20
2023-05-15T14:34:33.771Z,41.20
2023-05-15T14:35:33.625Z,41.20
2023-05-15T14:36:33.441Z,41.28
2023-05-15T14:37:33.275Z,41.29
2023-05-15T14:38:33.110Z,41.20
2023-05-15T14:39:32.943Z,41.21
2023-05-15T14:40:32.773Z,41.20
2023-05-15T14:41:32.614Z,41.16
2023-05-15T14:42:32.460Z,41.15
2023-05-15T14:43:32.280Z,41.14
2023-05-15T14:44:32.154Z,41.11
2023-05-15T14:45:31.962Z,41.13
2023-05-15T14:46:31.889Z,41.09
2023-05-15T14:47:31.680Z,41.06
2023-05-15T14:48:31.474Z,41.13
2023-05-15T14:49:31.302Z,41.04
2023-05-15T14:50:31.142Z,41.06
2023-05-15T14:51:30.969Z,41.06
2023-05-15T14:52:30.806Z,41.03
2023-05-15T14:53:30.650Z,41.01
2023-05-15T14:54:30.478Z,41.02
2023-05-15T14:55:30.311Z,41.02
2023-05-15T14:56:30.162Z,41.02
2023-05-15T14:57:29.994Z,41.02
2023-05-15T14:58:29.822Z,40.98
2023-05-15T14:59:29.658Z,40.98
2023-05-15T15:00:29.502Z,40.96
2023-05-15T15:01:29.373Z,40.94
2023-05-15T15:02:29.268Z,40.97
2023-05-15T15:03:31.137Z,40.95
2023-05-15T15:04:28.832Z,40.91
2023-05-15T15:05:28.641Z,40.92
2023-05-15T15:06:28.468Z,40.93
2023-05-15T15:07:28.304Z,40.88
2023-05-15T15:08:28.130Z,40.92
2023-05-15T15:09:29.170Z,40.82
2023-05-15T15:10:27.867Z,40.87
2023-05-15T15:11:27.618Z,40.91
2023-05-15T15:12:27.423Z,40.82
2023-05-15T15:13:27.247Z,40.88
2023-05-15T15:14:27.070Z,40.85
2023-05-15T15:15:26.881Z,40.84
2023-05-15T15:16:26.743Z,40.81
2023-05-15T15:17:26.536Z,40.88
2023-05-15T15:18:26.360Z,40.83
2023-05-15T15:19:26.199Z,40.83
2023-05-15T15:20:26.283Z,40.82
2023-05-15T15:21:25.821Z,40.81
2023-05-15T15:22:25.644Z,40.82
2023-05-15T15:23:25.459Z,40.83
2023-05-15T15:24:25.276Z,40.82
2023-05-15T15:25:25.109Z,40.78
2023-05-15T15:26:24.920Z,40.80
2023-05-15T15:27:24.742Z,40.79
2023-05-15T15:28:24.561Z,40.75
2023-05-15T15:29:24.389Z,40.72
2023-05-15T15:30:24.362Z,40.73
2023-05-15T15:31:24.069Z,40.74
2023-05-15T15:32:23.872Z,40.80
2023-05-15T15:33:23.678Z,40.70
2023-05-15T15:34:23.517Z,40.75
2023-05-15T15:35:23.342Z,40.78
2023-05-15T15:36:23.159Z,40.75
2023-05-15T15:37:22.984Z,40.75
2023-05-15T15:38:22.798Z,40.75
2023-05-15T15:39:22.638Z,40.74
2023-05-15T15:40:22.452Z,40.74
2023-05-15T15:41:22.292Z,40.74
2023-05-15T15:42:22.091Z,40.73
2023-05-15T15:43:21.909Z,40.72
2023-05-15T15:44:21.766Z,40.71
2023-05-15T15:45:21.553Z,40.74
2023-05-15T15:46:21.381Z,40.74
2023-05-15T15:47:21.207Z,40.76
2023-05-15T15:48:21.006Z,40.73
2023-05-15T15:49:20.913Z,40.76
2023-05-15T15:50:20.630Z,40.80
2023-05-15T15:51:20.441Z,40.78
2023-05-15T15:52:20.269Z,40.80
2023-05-15T15:53:20.094Z,40.78
2023-05-15T15:54:19.909Z,40.78
2023-05-15T15:55:19.735Z,40.79
2023-05-15T15:56:19.541Z,40.82
2023-05-15T15:57:19.372Z,40.82
2023-05-15T15:58:19.186Z,40.74
2023-05-15T15:59:19.013Z,40.72
2023-05-15T16:00:18.839Z,40.77
2023-05-15T16:01:18.723Z,40.77
2023-05-15T16:02:18.544Z,40.74
2023-05-15T16:03:18.493Z,40.76
2023-05-15T16:04:18.283Z,40.74
2023-05-15T16:05:18.088Z,40.75
2023-05-15T16:06:17.916Z,40.72
2023-05-15T16:07:17.776Z,40.72
2023-05-15T16:08:17.615Z,40.71
2023-05-15T16:09:17.457Z,40.71
2023-05-15T16:10:17.314Z,40.71
2023-05-15T16:11:17.153Z,40.70
2023-05-15T16:12:17.007Z,40.71
2023-05-15T16:13:16.863Z,40.68
2023-05-15T16:14:16.716Z,40.64
2023-05-15T16:15:22.573Z,40.69
2023-05-15T16:16:17.410Z,40.73
2023-05-15T16:17:16.250Z,40.72
2023-05-15T16:18:16.047Z,40.69
2023-05-15T16:19:15.930Z,40.75
2023-05-15T16:20:15.708Z,40.75
2023-05-15T16:21:15.539Z,40.70
2023-05-15T16:22:15.353Z,40.70
2023-05-15T16:23:15.192Z,40.75
2023-05-15T16:24:14.996Z,40.76
2023-05-15T16:25:14.826Z,40.72
2023-05-15T16:26:14.638Z,40.76
2023-05-15T16:27:14.464Z,40.76
2023-05-15T16:28:14.274Z,40.72
2023-05-15T16:29:14.103Z,40.71
2023-05-15T16:30:13.936Z,40.72
2023-05-15T16:31:13.766Z,40.73
2023-05-15T16:32:13.593Z,40.72
2023-05-15T16:33:13.464Z,40.66
2023-05-15T16:34:13.323Z,40.67
2023-05-15T16:35:13.184Z,40.72
2023-05-15T16:36:13.040Z,40.64
2023-05-15T16:37:12.908Z,40.66
2023-05-15T16:38:12.767Z,40.60
2023-05-15T16:39:12.630Z,40.69
2023-05-15T16:40:12.500Z,40.53
2023-05-15T16:41:12.348Z,40.55
2023-05-15T16:42:12.222Z,40.53
2023-05-15T16:43:12.083Z,40.53
2023-05-15T16:44:11.966Z,40.53
2023-05-15T16:45:11.831Z,40.48
2023-05-15T16:46:11.764Z,40.56
2023-05-15T16:47:11.562Z,40.49
2023-05-15T16:48:11.483Z,40.45
2023-05-15T16:49:11.354Z,40.49
2023-05-15T16:50:11.171Z,40.50
2023-05-15T16:51:11.040Z,40.45
2023-05-15T16:52:10.914Z,40.49
2023-05-15T16:53:10.847Z,40.42
2023-05-15T16:54:10.653Z,40.46
2023-05-15T16:55:10.541Z,40.41
2023-05-15T16:56:10.398Z,40.42
2023-05-15T16:57:10.277Z,40.45
2023-05-15T16:58:10.175Z,40.36
2023-05-15T16:59:10.042Z,40.31
2023-05-15T17:00:09.898Z,40.34
2023-05-15T17:01:09.764Z,40.42
2023-05-15T17:02:09.785Z,40.38
2023-05-15T17:03:09.614Z,40.41
2023-05-15T17:04:09.551Z,40.32
2023-05-15T17:05:09.266Z,40.34
2023-05-15T17:06:09.132Z,40.30
2023-05-15T17:07:09.012Z,40.33
2023-05-15T17:08:08.880Z,40.30
2023-05-15T17:09:08.751Z,40.34
2023-05-15T17:10:08.635Z,40.26
2023-05-15T17:11:08.512Z,40.28
2023-05-15T17:12:08.395Z,40.23
2023-05-15T17:13:08.277Z,40.27
2023-05-15T17:14:08.152Z,40.18
2023-05-15T17:15:08.040Z,40.20
2023-05-15T17:16:07.935Z,40.24
2023-05-15T17:17:07.794Z,40.24
2023-05-15T17:18:08.713Z,40.28
2023-05-15T17:19:07.593Z,40.24
2023-05-15T17:20:07.463Z,40.22
2023-05-15T17:21:07.334Z,40.21
2023-05-15T17:22:07.220Z,40.14
2023-05-15T17:23:07.097Z,40.07
2023-05-15T17:24:06.988Z,40.12
2023-05-15T17:25:06.877Z,40.17
2023-05-15T17:26:06.757Z,40.02
2023-05-15T17:27:06.638Z,40.06
2023-05-15T17:28:06.532Z,40.08
2023-05-15T17:29:06.420Z,39.96
2023-05-15T17:30:06.317Z,39.90
2023-05-15T17:31:06.202Z,39.99
2023-05-15T17:32:06.122Z,40.07
2023-05-15T17:33:06.013Z,39.98
2023-05-15T17:34:05.889Z,39.92
2023-05-15T17:35:05.792Z,39.90
2023-05-15T17:36:05.670Z,39.85
2023-05-15T17:37:05.557Z,40.01
2023-05-15T17:38:05.443Z,40.03
2023-05-15T17:39:05.359Z,40.04
2023-05-15T17:40:05.281Z,40.09
2023-05-15T17:41:05.104Z,40.02
2023-05-15T17:42:04.983Z,39.99
2023-05-15T17:43:04.904Z,39.94
2023-05-15T17:44:04.784Z,39.90
2023-05-15T17:45:04.676Z,39.89
2023-05-15T17:46:04.654Z,39.81
2023-05-15T17:47:04.468Z,39.86
2023-05-15T17:48:04.360Z,39.86
2023-05-15T17:49:04.224Z,39.80
2023-05-15T17:50:04.131Z,39.81
2023-05-15T17:51:04.010Z,39.79
2023-05-15T17:52:03.960Z,39.80
2023-05-15T17:53:03.795Z,39.82
2023-05-15T17:54:03.687Z,39.89
2023-05-15T17:55:03.600Z,39.82
2023-05-15T17:56:03.501Z,39.87
2023-05-15T17:57:03.384Z,39.85
2023-05-15T17:58:03.278Z,39.97
2023-05-15T17:59:03.176Z,39.94
2023-05-15T18:00:03.075Z,39.90
2023-05-15T18:01:02.972Z,39.91
2023-05-15T18:02:02.985Z,39.93
2023-05-15T18:03:02.769Z,39.99
2023-05-15T18:04:02.687Z,39.94
2023-05-15T18:05:02.578Z,39.92
2023-05-15T18:06:02.423Z,39.92
2023-05-15T18:07:02.327Z,39.88
2023-05-15T18:08:02.222Z,39.97
2023-05-15T18:09:02.125Z,39.97
2023-05-15T18:10:02.017Z,39.92
2023-05-15T18:11:08.538Z,39.93
2023-05-15T18:12:02.724Z,40.01
2023-05-15T18:13:01.613Z,39.99
2023-05-15T18:14:01.391Z,39.99
2023-05-15T18:15:01.276Z,39.96
2023-05-15T18:16:01.062Z,39.96
2023-05-15T18:17:00.875Z,39.96
2023-05-15T18:18:00.819Z,39.95
2023-05-15T18:19:00.580Z,39.97